createdAt,value
2022-08-01T00:00:52.859Z,99860.22
2022-08-01T00:03:20.869Z,99865.56
2022-08-01T00:05:50.077Z,99858.50
2022-08-01T00:08:18.122Z,99859.47
2022-08-01T00:10:45.987Z,99855.06
2022-08-01T00:13:13.979Z,99855.19
2022-08-01T00:15:41.832Z,99857.84
2022-08-01T00:18:21.987Z,99846.66
2022-08-01T00:20:51.327Z,99854.38
2022-08-01T00:23:19.140Z,99861.44
2022-08-01T00:25:47.138Z,99851.84
2022-08-01T00:28:15.085Z,99855.19
2022-08-01T00:30:43.175Z,99846.66
2022-08-01T00:33:11.016Z,99854.59
2022-08-01T00:35:39.012Z,99851.31
2022-08-01T00:38:08.278Z,99851.16
2022-08-01T00:40:36.316Z,99851.22
2022-08-01T00:43:04.156Z,99845.97
2022-08-01T00:45:32.149Z,99846.94
2022-08-01T00:47:59.982Z,99847.03
2022-08-01T00:50:28.018Z,99832.78
2022-08-01T00:52:56.058Z,99841.88
2022-08-01T00:55:25.358Z,99823.22
2022-08-01T00:58:02.361Z,99845.59
2022-08-01T01:00:34.837Z,99853.88
2022-08-01T01:03:23.488Z,99837.25
2022-08-01T01:05:58.452Z,99843.63
2022-08-01T01:08:29.147Z,99837.19
2022-08-01T01:11:00.438Z,99814.50
2022-08-01T01:13:30.876Z,99802.00
2022-08-01T01:16:01.121Z,99848.69
2022-08-01T01:18:32.796Z,99861.22
2022-08-01T01:21:03.407Z,99848.91
2022-08-01T01:23:42.694Z,99850.53
2022-08-01T01:26:19.692Z,99823.19
2022-08-01T01:29:12.903Z,99851.38
2022-08-01T01:31:44.077Z,99853.38
2022-08-01T01:34:13.343Z,99851.66
2022-08-01T01:36:41.547Z,99835.41
2022-08-01T01:39:09.663Z,99849.94
2022-08-01T01:41:37.980Z,99851.16
2022-08-01T01:44:06.403Z,99852.78
2022-08-01T01:46:35.609Z,99851.06
2022-08-01T01:49:03.630Z,99860.81
2022-08-01T01:51:31.510Z,99854.59
2022-08-01T01:54:00.121Z,99858.13
2022-08-01T01:56:28.187Z,99862.44
2022-08-01T01:58:57.740Z,99858.81
2022-08-01T02:01:58.351Z,99857.94
2022-08-01T02:04:16.806Z,99850.19
2022-08-01T02:06:45.119Z,99857.19
2022-08-01T02:09:13.613Z,99823.88
2022-08-01T02:12:07.621Z,99857.38
2022-08-01T02:14:29.278Z,99860.03
2022-08-01T02:16:59.202Z,99848.06
2022-08-01T02:19:28.725Z,99861.84
2022-08-01T02:21:58.015Z,99860.13
2022-08-01T02:24:30.794Z,99847.13
2022-08-01T02:27:00.152Z,99847.81
2022-08-01T02:29:30.126Z,99847.66
2022-08-01T02:31:58.150Z,99833.19
2022-08-01T02:34:26.575Z,99824.44
2022-08-01T02:36:55.833Z,99853.91
2022-08-01T02:39:23.666Z,99850.47
2022-08-01T02:41:52.390Z,99840.44
2022-08-01T02:44:24.617Z,99860.38
2022-08-01T02:46:53.679Z,99821.19
2022-08-01T02:49:22.143Z,99850.47
2022-08-01T02:51:50.197Z,99821.31
2022-08-01T02:54:19.858Z,99851.13
2022-08-01T02:56:47.838Z,99845.13
2022-08-01T02:59:19.796Z,99841.09
2022-08-01T03:01:50.225Z,99802.13
2022-08-01T03:04:18.818Z,99846.09
2022-08-01T03:06:46.741Z,99841.69
2022-08-01T03:09:14.698Z,99832.31
2022-08-01T03:11:46.564Z,99804.81
2022-08-01T03:14:14.660Z,99821.03
2022-08-01T03:16:44.066Z,99838.25
2022-08-01T03:19:13.194Z,99801.53
2022-08-01T03:21:41.596Z,99842.72
2022-08-01T03:24:09.889Z,99837.50
2022-08-01T03:26:38.368Z,99854.38
2022-08-01T03:29:08.516Z,99854.28
2022-08-01T03:31:36.786Z,99857.78
2022-08-01T03:34:05.969Z,99848.06
2022-08-01T03:36:35.781Z,99856.94
2022-08-01T03:39:05.321Z,99852.00
2022-08-01T03:41:36.029Z,99862.28
2022-08-01T03:44:18.253Z,99857.72
2022-08-01T03:46:48.569Z,99864.19
2022-08-01T03:49:37.090Z,99864.84
2022-08-01T03:52:06.319Z,99858.84
2022-08-01T03:54:36.890Z,99854.63
2022-08-01T03:57:04.901Z,99825.88
2022-08-01T03:59:34.517Z,99855.22
2022-08-01T04:02:02.526Z,99855.03
2022-08-01T04:04:30.723Z,99862.19
2022-08-01T04:06:58.590Z,99851.44
2022-08-01T04:09:26.618Z,99847.38
2022-08-01T04:11:54.615Z,99856.06
2022-08-01T04:14:23.693Z,99844.56
2022-08-01T04:16:53.010Z,99865.22
2022-08-01T04:19:21.374Z,99862.63
2022-08-01T04:21:49.299Z,99858.16
2022-08-01T04:24:19.832Z,99860.00
2022-08-01T04:26:48.549Z,99836.97
2022-08-01T04:29:16.876Z,99871.66
2022-08-01T04:31:45.372Z,99864.69
2022-08-01T04:34:15.208Z,99855.50
2022-08-01T04:36:43.825Z,99866.69
2022-08-01T04:39:11.827Z,99877.09
2022-08-01T04:41:39.657Z,99877.09
2022-08-01T04:44:07.878Z,99882.09
2022-08-01T04:46:35.994Z,99877.53
2022-08-01T04:49:04.137Z,99890.69
2022-08-01T04:51:33.394Z,99890.44
2022-08-01T04:54:02.011Z,99894.63
2022-08-01T04:56:29.900Z,99900.66
2022-08-01T04:59:19.633Z,99897.72
2022-08-01T05:01:51.563Z,99893.06
2022-08-01T05:04:19.713Z,99891.94
2022-08-01T05:06:48.908Z,99897.19
2022-08-01T05:09:17.012Z,99895.19
2022-08-01T05:11:44.884Z,99893.22
2022-08-01T05:14:12.871Z,99897.59
2022-08-01T05:16:40.730Z,99901.16
2022-08-01T05:19:09.155Z,99903.63
2022-08-01T05:21:37.179Z,99905.25
2022-08-01T05:24:07.132Z,99908.78
2022-08-01T05:26:36.592Z,99900.59
2022-08-01T05:29:04.738Z,99903.06
2022-08-01T05:31:35.098Z,99876.41
2022-08-01T05:34:03.216Z,99913.50
2022-08-01T05:36:31.092Z,99913.28
2022-08-01T05:38:59.124Z,99917.59
2022-08-01T05:41:28.614Z,99929.94
2022-08-01T05:43:56.641Z,99923.63
2022-08-01T05:46:27.439Z,99930.63
2022-08-01T05:48:55.862Z,99931.47
2022-08-01T05:51:23.783Z,99892.75
2022-08-01T05:53:51.770Z,99920.72
2022-08-01T05:56:19.695Z,99829.13
2022-08-01T05:58:48.906Z,99924.81
2022-08-01T06:01:16.882Z,99865.34
2022-08-01T06:03:44.990Z,99848.47
2022-08-01T06:06:12.886Z,99808.13
2022-08-01T06:08:40.799Z,99925.97
2022-08-01T06:11:08.700Z,99725.94
2022-08-01T06:13:47.060Z,99858.22
2022-08-01T06:16:17.682Z,99930.56
2022-08-01T06:18:45.561Z,99875.69
2022-08-01T06:21:13.654Z,99881.59
2022-08-01T06:23:42.493Z,99824.66
2022-08-01T06:26:10.516Z,99818.06
2022-08-01T06:28:38.659Z,99892.00
2022-08-01T06:31:06.589Z,99837.44
2022-08-01T06:33:35.859Z,99668.09
2022-08-01T06:36:03.851Z,99826.31
2022-08-01T06:38:31.750Z,99900.59
2022-08-01T06:40:59.697Z,99856.75
2022-08-01T06:43:27.569Z,99939.50
2022-08-01T06:45:56.381Z,99888.75
2022-08-01T06:48:24.527Z,99819.88
2022-08-01T06:51:08.902Z,99790.66
2022-08-01T06:53:37.543Z,99632.22
2022-08-01T06:56:06.088Z,99866.50
2022-08-01T06:58:35.641Z,99907.69
2022-08-01T07:01:05.152Z,99858.38
2022-08-01T07:03:54.103Z,99694.91
2022-08-01T07:06:23.115Z,99621.28
2022-08-01T07:08:51.106Z,99928.34
2022-08-01T07:11:19.384Z,99933.28
2022-08-01T07:13:47.628Z,99878.22
2022-08-01T07:16:15.701Z,99790.38
2022-08-01T07:18:44.723Z,99828.34
2022-08-01T07:21:18.531Z,99716.41
2022-08-01T07:24:01.960Z,99951.13
2022-08-01T07:26:39.351Z,99677.41
2022-08-01T07:29:20.622Z,99923.16
2022-08-01T07:31:48.519Z,99742.09
2022-08-01T07:34:16.494Z,99934.22
2022-08-01T07:36:44.832Z,99870.66
2022-08-01T07:39:15.112Z,99882.38
2022-08-01T07:42:04.614Z,99914.06
2022-08-01T07:44:31.008Z,99907.91
2022-08-01T07:46:59.170Z,99928.03
2022-08-01T07:49:27.094Z,99741.78
2022-08-01T07:52:02.703Z,99880.63
2022-08-01T07:54:34.565Z,99852.31
2022-08-01T07:57:03.084Z,99890.31
2022-08-01T07:59:32.004Z,99720.13
2022-08-01T08:02:00.280Z,99551.97
2022-08-01T08:04:28.567Z,99756.38
2022-08-01T08:06:56.744Z,99987.13
2022-08-01T08:09:25.106Z,99975.72
2022-08-01T08:11:54.973Z,99736.13
2022-08-01T08:14:32.155Z,99975.38
2022-08-01T08:17:01.942Z,99846.59
2022-08-01T08:19:37.373Z,99832.50
2022-08-01T08:22:07.185Z,99824.38
2022-08-01T08:24:35.391Z,99899.44
2022-08-01T08:27:05.071Z,99853.09
2022-08-01T08:29:33.526Z,99787.13
2022-08-01T08:32:02.104Z,99977.78
2022-08-01T08:34:30.456Z,99822.63
2022-08-01T08:36:59.269Z,99610.47
2022-08-01T08:39:27.387Z,99954.69
2022-08-01T08:41:55.472Z,99728.94
2022-08-01T08:44:25.289Z,99770.16
2022-08-01T08:46:53.798Z,99877.34
2022-08-01T08:49:23.805Z,99884.47
2022-08-01T08:51:53.313Z,99934.84
2022-08-01T08:54:28.930Z,99830.13
2022-08-01T08:57:00.378Z,99788.56
2022-08-01T08:59:30.467Z,99974.72
2022-08-01T09:01:58.480Z,99794.25
2022-08-01T09:04:27.121Z,99920.94
2022-08-01T09:06:55.545Z,99923.25
2022-08-01T09:09:23.688Z,99971.66
2022-08-01T09:11:56.884Z,99974.19
2022-08-01T09:14:28.143Z,99850.84
2022-08-01T09:17:08.650Z,99924.50
2022-08-01T09:19:39.717Z,99831.59
2022-08-01T09:22:09.969Z,99851.75
2022-08-01T09:24:39.526Z,99698.84
2022-08-01T09:27:19.726Z,99696.41
2022-08-01T09:30:00.587Z,99907.47
2022-08-01T09:32:35.926Z,99845.28
2022-08-01T09:35:30.871Z,100021.97
2022-08-01T09:38:16.746Z,99878.34
2022-08-01T09:40:49.301Z,99711.50
2022-08-01T09:43:17.564Z,99937.81
2022-08-01T09:45:48.955Z,99773.47
2022-08-01T09:48:20.041Z,99708.53
2022-08-01T09:50:52.064Z,99944.56
2022-08-01T09:53:20.803Z,99774.69
2022-08-01T09:56:10.510Z,99973.22
2022-08-01T09:59:00.319Z,100002.06
2022-08-01T10:01:36.911Z,99888.38
2022-08-01T10:04:12.414Z,99966.16
2022-08-01T10:06:41.923Z,99871.31
2022-08-01T10:09:11.219Z,99944.34
2022-08-01T10:11:40.272Z,99869.94
2022-08-01T10:14:08.756Z,99995.28
2022-08-01T10:16:38.287Z,99566.84
2022-08-01T10:19:14.650Z,99964.75
2022-08-01T10:21:58.567Z,99935.53
2022-08-01T10:24:30.701Z,99737.44
2022-08-01T10:27:08.292Z,99907.38
2022-08-01T10:30:05.603Z,99942.22
2022-08-01T10:32:33.640Z,99992.16
2022-08-01T10:35:06.215Z,100008.06
2022-08-01T10:37:52.216Z,99760.44
2022-08-01T10:40:35.581Z,100000.56
2022-08-01T10:43:04.015Z,99842.50
2022-08-01T10:45:31.947Z,99949.00
2022-08-01T10:48:02.438Z,100016.47
2022-08-01T10:50:32.533Z,99924.41
2022-08-01T10:53:16.136Z,99916.28
2022-08-01T10:55:52.697Z,99985.97
2022-08-01T10:58:24.342Z,99786.66
2022-08-01T11:01:26.677Z,99987.25
2022-08-01T11:04:06.222Z,99928.47
2022-08-01T11:06:55.380Z,99858.50
2022-08-01T11:09:36.476Z,99934.78
2022-08-01T11:12:08.206Z,99873.19
2022-08-01T11:15:29.759Z,99990.72
2022-08-01T11:18:00.445Z,99989.47
2022-08-01T11:20:31.582Z,100006.22
2022-08-01T11:23:36.376Z,99984.41
2022-08-01T11:26:29.001Z,99987.34
2022-08-01T11:29:22.601Z,99806.31
2022-08-01T11:31:51.349Z,99803.44
2022-08-01T11:34:19.773Z,99891.38
2022-08-01T11:37:03.485Z,99895.81
2022-08-01T11:39:35.521Z,99755.09
2022-08-01T11:42:22.414Z,100014.38
2022-08-01T11:44:52.383Z,99717.94
2022-08-01T11:47:46.705Z,99689.34
2022-08-01T11:50:36.944Z,99786.03
2022-08-01T11:53:15.797Z,99959.88
2022-08-01T11:58:22.301Z,99954.34
2022-08-01T12:00:55.504Z,99939.22
2022-08-01T12:03:33.660Z,99962.50
2022-08-01T12:06:02.336Z,99953.00
2022-08-01T12:08:30.625Z,99943.69
2022-08-01T12:11:02.556Z,99955.97
2022-08-01T12:13:40.193Z,99942.88
2022-08-01T12:16:09.065Z,99945.06
2022-08-01T12:18:40.462Z,99952.41
2022-08-01T12:21:08.297Z,99954.41
2022-08-01T12:23:36.145Z,99950.34
2022-08-01T12:26:05.074Z,99948.09
2022-08-01T12:28:41.079Z,99959.50
2022-08-01T12:31:08.947Z,99952.34
2022-08-01T12:33:36.923Z,99958.47
2022-08-01T12:36:04.901Z,99969.97
2022-08-01T12:38:33.981Z,99968.38
2022-08-01T12:41:02.033Z,99979.66
2022-08-01T12:43:29.897Z,99972.16
2022-08-01T12:46:00.906Z,99970.19
2022-08-01T12:48:29.054Z,99978.34
2022-08-01T12:50:58.531Z,99989.19
2022-08-01T12:53:27.038Z,99969.03
2022-08-01T12:56:07.815Z,99964.31
2022-08-01T12:58:35.862Z,99959.34
2022-08-01T13:01:09.159Z,99961.28
2022-08-01T13:03:37.073Z,99958.16
2022-08-01T13:06:12.677Z,99962.66
2022-08-01T13:08:40.495Z,99942.56
2022-08-01T13:11:10.071Z,99959.78
2022-08-01T13:13:40.158Z,99958.16
2022-08-01T13:16:12.492Z,99972.72
2022-08-01T13:18:50.473Z,99967.75
2022-08-01T13:21:19.072Z,99967.06
2022-08-01T13:24:04.237Z,99963.06
2022-08-01T13:26:45.997Z,99957.44
2022-08-01T13:29:14.596Z,99970.19
2022-08-01T13:31:44.164Z,99965.59
2022-08-01T13:34:11.983Z,99964.53
2022-08-01T13:36:43.047Z,99964.03
2022-08-01T13:39:34.371Z,99966.38
2022-08-01T13:42:02.222Z,99969.59
2022-08-01T13:44:30.084Z,99974.78
2022-08-01T13:46:59.389Z,99973.72
2022-08-01T13:49:37.382Z,99966.72
2022-08-01T13:52:07.574Z,99969.63
2022-08-01T13:54:35.836Z,99964.34
2022-08-01T13:57:03.730Z,99980.59
2022-08-01T13:59:31.600Z,99956.34
2022-08-01T14:02:00.863Z,99970.53
2022-08-01T14:04:28.690Z,99974.97
2022-08-01T14:06:56.637Z,99959.81
2022-08-01T14:09:26.751Z,99963.81
2022-08-01T14:12:00.485Z,99967.22
2022-08-01T14:14:28.347Z,99967.13
2022-08-01T14:16:56.247Z,99968.59
2022-08-01T14:19:38.918Z,99969.19
2022-08-01T14:22:08.464Z,99969.31
2022-08-01T14:24:36.705Z,99971.31
2022-08-01T14:27:06.943Z,99966.31
2022-08-01T14:30:02.868Z,99975.28
2022-08-01T14:32:25.958Z,99973.16
2022-08-01T14:34:58.107Z,99963.75
2022-08-01T14:37:29.170Z,99974.59
2022-08-01T14:39:58.972Z,99976.59
2022-08-01T14:42:26.901Z,99966.47
2022-08-01T14:44:54.814Z,99978.72
2022-08-01T14:47:22.765Z,99975.31
2022-08-01T14:49:51.485Z,99978.16
2022-08-01T14:52:21.553Z,99953.22
2022-08-01T14:54:49.474Z,99969.31
2022-08-01T14:57:19.230Z,99965.34
2022-08-01T14:59:47.273Z,99970.28
2022-08-01T15:02:18.147Z,99974.59
2022-08-01T15:04:46.171Z,99969.44
2022-08-01T15:07:13.999Z,99972.28
2022-08-01T15:09:43.263Z,99962.59
2022-08-01T15:12:11.398Z,99977.56
2022-08-01T15:14:51.374Z,99977.56
2022-08-01T15:17:20.265Z,99978.44
2022-08-01T15:19:50.972Z,99978.13
2022-08-01T15:22:20.293Z,99983.19
2022-08-01T15:24:51.934Z,99983.16
2022-08-01T15:27:22.497Z,99979.31
2022-08-01T15:29:50.347Z,99990.53
2022-08-01T15:32:18.228Z,99988.25
2022-08-01T15:34:46.208Z,99987.06
2022-08-01T15:37:14.422Z,99983.50
2022-08-01T15:39:42.334Z,99987.66
2022-08-01T15:42:12.727Z,99986.56
2022-08-01T15:44:40.551Z,99988.94
2022-08-01T15:47:08.483Z,99977.78
2022-08-01T15:49:37.089Z,99974.75
2022-08-01T15:52:05.514Z,99985.06
2022-08-01T15:54:33.861Z,100000.41
2022-08-01T15:57:01.755Z,99995.16
2022-08-01T15:59:30.990Z,99994.41
2022-08-01T16:01:59.222Z,99990.28
2022-08-01T16:04:29.872Z,99990.69
2022-08-01T16:06:58.196Z,99997.75
2022-08-01T16:09:26.952Z,99993.34
2022-08-01T16:11:55.011Z,99999.81
2022-08-01T16:14:22.869Z,99995.84
2022-08-01T16:16:55.192Z,99994.53
2022-08-01T16:19:24.144Z,99992.63
2022-08-01T16:21:53.173Z,99976.97
2022-08-01T16:24:20.999Z,99993.59
2022-08-01T16:26:49.071Z,99995.75
2022-08-01T16:29:16.957Z,99997.25
2022-08-01T16:31:52.285Z,99998.06
2022-08-01T16:34:34.119Z,99993.72
2022-08-01T16:37:03.639Z,100003.78
2022-08-01T16:39:35.399Z,100003.28
2022-08-01T16:42:03.306Z,99989.84
2022-08-01T16:44:34.117Z,99966.38
2022-08-01T16:47:03.103Z,99984.72
2022-08-01T16:49:31.988Z,99983.28
2022-08-01T16:52:02.075Z,99992.22
2022-08-01T16:54:30.147Z,99966.56
2022-08-01T16:57:08.306Z,99990.63
2022-08-01T16:59:40.862Z,99995.91
2022-08-01T17:02:09.901Z,99999.56
2022-08-01T17:04:37.754Z,99998.00
2022-08-01T17:07:07.341Z,99997.84
2022-08-01T17:09:38.635Z,100003.13
2022-08-01T17:12:10.662Z,100001.53
2022-08-01T17:14:39.950Z,100005.22
2022-08-01T17:17:08.625Z,100005.97
2022-08-01T17:19:36.873Z,100006.22
2022-08-01T17:22:06.071Z,100006.00
2022-08-01T17:24:34.042Z,100004.34
2022-08-01T17:27:01.995Z,100009.28
2022-08-01T17:29:43.731Z,100001.69
2022-08-01T17:32:12.473Z,99965.19
2022-08-01T17:34:40.413Z,100003.88
2022-08-01T17:37:10.031Z,100006.22
2022-08-01T17:39:39.493Z,99992.03
2022-08-01T17:42:08.455Z,100001.19
2022-08-01T17:44:36.332Z,100015.75
2022-08-01T17:47:06.144Z,100012.69
2022-08-01T17:49:53.810Z,100007.56
2022-08-01T17:52:26.196Z,99979.19
2022-08-01T17:54:58.190Z,99962.94
2022-08-01T17:57:26.331Z,100005.28
2022-08-01T17:59:54.220Z,99996.84
2022-08-01T18:02:22.446Z,100001.22
2022-08-01T18:04:52.313Z,99998.88
2022-08-01T18:07:20.430Z,100002.63
2022-08-01T18:09:49.799Z,100011.41
2022-08-01T18:12:18.397Z,100004.00
2022-08-01T18:14:46.219Z,100012.22
2022-08-01T18:17:14.456Z,100000.84
2022-08-01T18:19:46.562Z,100004.34
2022-08-01T18:22:33.186Z,100005.28
2022-08-01T18:25:08.635Z,100005.94
2022-08-01T18:28:23.388Z,100002.06
2022-08-01T18:30:24.966Z,100008.72
2022-08-01T18:32:53.508Z,100011.34
2022-08-01T18:35:22.554Z,100017.88
2022-08-01T18:37:55.474Z,100021.03
2022-08-01T18:40:24.811Z,100027.72
2022-08-01T18:42:54.400Z,100038.03
2022-08-01T18:45:22.234Z,100026.19
2022-08-01T18:47:50.221Z,100030.94
2022-08-01T18:50:18.021Z,100022.97
2022-08-01T18:52:46.022Z,100031.31
2022-08-01T18:55:13.853Z,100036.47
2022-08-01T18:57:43.059Z,100022.50
2022-08-01T19:00:13.716Z,100039.34
2022-08-01T19:02:41.916Z,100025.44
2022-08-01T19:05:10.477Z,100049.94
2022-08-01T19:08:05.247Z,100028.84
2022-08-01T19:10:26.409Z,100057.44
2022-08-01T19:12:55.732Z,100057.63
2022-08-01T19:15:23.568Z,100064.16
2022-08-01T19:17:51.481Z,100053.38
2022-08-01T19:20:19.303Z,100058.19
2022-08-01T19:22:47.237Z,100055.03
2022-08-01T19:25:14.489Z,100064.78
2022-08-01T19:27:44.191Z,100079.44
2022-08-01T19:30:14.306Z,100067.31
2022-08-01T19:32:43.145Z,100067.81
2022-08-01T19:35:12.243Z,100086.13
2022-08-01T19:37:44.004Z,100081.34
2022-08-01T19:40:27.656Z,100085.53
2022-08-01T19:42:56.658Z,100089.63
2022-08-01T19:45:28.297Z,100092.81
2022-08-01T19:47:57.599Z,100088.78
2022-08-01T19:50:26.469Z,100086.69
2022-08-01T19:52:54.933Z,100052.22
2022-08-01T19:55:23.383Z,100094.72
2022-08-01T19:58:10.559Z,100118.31
2022-08-01T20:00:40.561Z,100105.38
2022-08-01T20:03:08.739Z,100103.91
2022-08-01T20:05:37.230Z,100103.34
2022-08-01T20:08:06.940Z,100098.63
2022-08-01T20:10:35.702Z,100086.13
2022-08-01T20:13:04.783Z,100099.94
2022-08-01T20:15:32.631Z,100100.31
2022-08-01T20:18:01.954Z,100095.66
2022-08-01T20:20:29.849Z,100108.75
2022-08-01T20:22:59.979Z,100109.03
2022-08-01T20:25:33.568Z,100112.91
2022-08-01T20:28:08.790Z,100107.84
2022-08-01T20:30:36.664Z,100118.91
2022-08-01T20:33:05.906Z,100103.53
2022-08-01T20:35:53.483Z,100078.97
2022-08-01T20:38:23.023Z,100119.22
2022-08-01T20:40:51.062Z,100124.56
2022-08-01T20:43:20.110Z,100131.13
2022-08-01T20:45:48.475Z,100141.13
2022-08-01T20:48:18.341Z,100131.63
2022-08-01T20:51:03.745Z,100128.28
2022-08-01T20:53:31.788Z,100086.38
2022-08-01T20:56:01.889Z,100114.19
2022-08-01T20:58:34.881Z,100107.91
2022-08-01T21:01:03.020Z,100124.13
2022-08-01T21:03:37.999Z,100131.75
2022-08-01T21:06:08.923Z,100117.81
2022-08-01T21:08:39.411Z,100095.94
2022-08-01T21:11:07.911Z,100120.31
2022-08-01T21:13:38.187Z,100122.50
2022-08-01T21:16:23.912Z,100114.47
2022-08-01T21:21:46.119Z,100121.94
2022-08-01T21:24:16.877Z,100120.34
2022-08-01T21:26:44.831Z,100082.63
2022-08-01T21:29:12.781Z,100117.47
2022-08-01T21:31:41.428Z,100119.50
2022-08-01T21:36:44.759Z,100124.50
2022-08-01T21:39:12.567Z,100117.66
2022-08-01T21:42:04.806Z,100118.69
2022-08-01T21:44:28.640Z,100116.25
2022-08-01T21:46:57.426Z,100118.34
2022-08-01T21:49:25.599Z,100124.75
2022-08-01T21:51:55.659Z,100120.59
2022-08-01T21:54:28.400Z,100107.94
2022-08-01T21:56:59.745Z,100113.59
2022-08-01T21:59:31.078Z,100097.19
2022-08-01T22:02:01.296Z,100119.56
2022-08-01T22:04:34.511Z,100119.78
2022-08-01T22:07:03.920Z,100120.00
2022-08-01T22:09:32.149Z,100133.47
2022-08-01T22:12:01.618Z,100134.56
2022-08-01T22:14:30.275Z,100137.44
2022-08-01T22:16:58.432Z,100113.66
2022-08-01T22:19:41.316Z,100138.66
2022-08-01T22:22:44.703Z,100126.69
2022-08-01T22:25:02.933Z,100142.66
2022-08-01T22:28:05.507Z,100124.59
2022-08-01T22:30:19.007Z,100127.41
2022-08-01T22:33:06.842Z,100137.91
2022-08-01T22:35:35.336Z,100140.72
2022-08-01T22:38:04.558Z,100141.84
2022-08-01T22:40:33.164Z,100146.44
2022-08-01T22:43:01.564Z,100118.88
2022-08-01T22:45:32.356Z,100140.81
2022-08-01T22:48:03.495Z,100104.81
2022-08-01T22:50:36.278Z,100137.72
2022-08-01T22:53:13.076Z,100143.16
2022-08-01T22:55:58.384Z,100145.97
2022-08-01T22:58:27.663Z,100126.44
2022-08-01T23:00:56.073Z,100141.00
2022-08-01T23:03:26.545Z,100141.19
2022-08-01T23:05:57.288Z,100124.94
2022-08-01T23:08:26.515Z,100123.09
2022-08-01T23:10:54.587Z,100124.19
2022-08-01T23:13:22.455Z,100093.16
2022-08-01T23:15:52.401Z,100110.78
2022-08-01T23:18:20.584Z,100129.41
2022-08-01T23:20:48.652Z,100111.19
2022-08-01T23:23:16.524Z,100131.31
2022-08-01T23:25:45.866Z,100154.50
2022-08-01T23:28:13.740Z,100132.34
2022-08-01T23:30:41.762Z,100124.53
2022-08-01T23:33:09.637Z,100128.97
2022-08-01T23:35:43.260Z,100131.63
2022-08-01T23:38:11.153Z,100118.66
2022-08-01T23:40:39.232Z,100125.59
2022-08-01T23:43:16.879Z,100100.81
2022-08-01T23:46:04.078Z,100121.38
2022-08-01T23:48:34.425Z,100121.56
2022-08-01T23:51:02.427Z,100127.81
2022-08-01T23:53:30.936Z,100114.84
2022-08-01T23:56:01.734Z,100128.00
2022-08-01T23:58:32.166Z,100125.47
